createdAt,value
2018-05-24T00:00:19.702Z,2.97
2018-05-24T00:02:48.058Z,4.20
2018-05-24T00:05:15.753Z,3.40
2018-05-24T00:07:43.356Z,5.13
2018-05-24T00:10:11.737Z,2.77
2018-05-24T00:12:40.104Z,3.17
2018-05-24T00:15:07.694Z,4.87
2018-05-24T00:17:35.311Z,3.47
2018-05-24T00:20:02.932Z,3.03
2018-05-24T00:22:30.567Z,4.00
2018-05-24T00:24:58.202Z,3.77
2018-05-24T00:27:25.816Z,3.40
2018-05-24T00:29:54.175Z,3.57
2018-05-24T00:32:21.760Z,3.83
2018-05-24T00:34:49.345Z,2.57
2018-05-24T00:37:16.934Z,3.77
2018-05-24T00:39:44.519Z,4.30
2018-05-24T00:42:12.931Z,6.87
2018-05-24T00:44:43.948Z,2.77
2018-05-24T00:47:14.821Z,2.70
2018-05-24T00:49:45.370Z,3.37
2018-05-24T00:52:15.497Z,2.90
2018-05-24T00:54:46.356Z,3.63
2018-05-24T00:57:14.701Z,2.90
2018-05-24T00:59:42.293Z,5.20
2018-05-24T01:02:09.871Z,4.73
2018-05-24T01:04:37.532Z,3.53
2018-05-24T01:07:05.922Z,3.20
2018-05-24T01:09:36.460Z,2.90
2018-05-24T01:12:09.695Z,4.47
2018-05-24T01:14:37.793Z,3.37
2018-05-24T01:17:06.530Z,2.70
2018-05-24T01:19:35.442Z,4.30
2018-05-24T01:22:07.552Z,3.10
2018-05-24T01:24:35.850Z,3.70
2018-05-24T01:27:07.607Z,3.37
2018-05-24T01:29:35.216Z,4.43
2018-05-24T01:32:02.875Z,2.70
2018-05-24T01:34:32.634Z,5.40
2018-05-24T01:37:13.678Z,3.87
2018-05-24T01:39:42.109Z,2.93
2018-05-24T01:44:35.596Z,4.63
2018-05-24T01:47:03.199Z,3.30
2018-05-24T01:49:30.808Z,3.17
2018-05-24T01:51:59.247Z,4.43
2018-05-24T01:54:26.840Z,3.33
2018-05-24T01:56:54.495Z,5.40
2018-05-24T01:59:22.854Z,2.53
2018-05-24T02:01:50.501Z,3.83
2018-05-24T02:04:18.854Z,3.47
2018-05-24T02:06:46.461Z,2.37
2018-05-24T02:09:14.115Z,3.80
2018-05-24T02:11:41.741Z,2.80
2018-05-24T02:14:09.319Z,2.80
2018-05-24T02:16:37.070Z,2.43
2018-05-24T02:19:04.652Z,2.80
2018-05-24T02:21:32.271Z,3.30
2018-05-24T02:23:59.872Z,3.23
2018-05-24T02:26:28.261Z,3.00
2018-05-24T02:28:56.692Z,3.00
2018-05-24T02:31:24.291Z,2.37
2018-05-24T02:33:52.639Z,3.57
2018-05-24T02:36:20.268Z,2.70
2018-05-24T02:38:47.862Z,3.37
2018-05-24T02:41:16.249Z,2.87
2018-05-24T02:43:43.840Z,2.77
2018-05-24T02:46:11.437Z,2.27
2018-05-24T02:48:39.111Z,2.70
2018-05-24T02:51:07.479Z,4.03
2018-05-24T02:53:35.091Z,3.57
2018-05-24T03:04:04.773Z,4.73
2018-05-24T03:06:48.990Z,10.63
2018-05-24T03:09:25.408Z,3.60
2018-05-24T03:11:57.650Z,4.90
2018-05-24T03:14:26.702Z,4.00
2018-05-24T03:17:02.514Z,6.87
2018-05-24T03:19:30.137Z,4.50
2018-05-24T03:21:58.803Z,4.97
2018-05-24T03:24:26.817Z,5.10
2018-05-24T03:26:57.959Z,5.73
2018-05-24T03:29:26.329Z,6.17
2018-05-24T03:31:55.480Z,5.00
2018-05-24T03:34:23.104Z,4.87
2018-05-24T03:36:50.728Z,5.27
2018-05-24T03:39:19.125Z,7.00
2018-05-24T03:41:47.556Z,6.37
2018-05-24T03:44:15.954Z,6.90
2018-05-24T03:46:44.972Z,5.47
2018-05-24T03:49:29.418Z,4.83
2018-05-24T03:52:04.299Z,5.23
2018-05-24T03:54:32.038Z,4.90
2018-05-24T03:57:02.506Z,5.67
2018-05-24T04:02:53.964Z,7.07
2018-05-24T04:05:22.384Z,5.87
2018-05-24T04:07:50.963Z,5.53
2018-05-24T04:10:18.674Z,4.67
2018-05-24T04:12:46.313Z,4.90
2018-05-24T04:15:15.659Z,8.00
2018-05-24T04:17:44.070Z,4.87
2018-05-24T04:20:11.694Z,6.77
2018-05-24T04:22:47.228Z,5.10
2018-05-24T04:25:18.707Z,4.47
2018-05-24T04:27:46.328Z,6.07
2018-05-24T04:30:14.797Z,6.20
2018-05-24T04:32:42.398Z,5.63
2018-05-24T04:35:10.038Z,4.90
2018-05-24T04:37:38.247Z,6.80
2018-05-24T04:40:06.055Z,5.07
2018-05-24T04:42:34.058Z,5.83
2018-05-24T04:45:02.096Z,5.13
2018-05-24T04:47:29.708Z,5.37
2018-05-24T04:49:58.224Z,6.17
2018-05-24T04:52:29.669Z,6.67
2018-05-24T04:54:57.628Z,5.27
2018-05-24T04:57:25.265Z,5.07
2018-05-24T04:59:54.654Z,6.50
2018-05-24T05:02:25.111Z,6.40
2018-05-24T05:04:53.637Z,5.77
2018-05-24T05:07:22.327Z,5.70
2018-05-24T05:09:51.749Z,5.30
2018-05-24T05:12:19.998Z,5.60
2018-05-24T05:14:47.807Z,5.83
2018-05-24T05:17:17.760Z,6.63
2018-05-24T05:19:45.580Z,7.70
2018-05-24T05:22:13.173Z,7.03
2018-05-24T05:24:40.860Z,6.43
2018-05-24T05:27:08.608Z,5.67
2018-05-24T05:29:37.183Z,6.60
2018-05-24T05:32:06.782Z,7.93
2018-05-24T05:34:35.187Z,7.07
2018-05-24T05:39:58.893Z,8.17
2018-05-24T05:42:27.268Z,9.17
2018-05-24T05:44:55.673Z,7.83
2018-05-24T05:50:19.255Z,8.10
2018-05-24T05:52:46.889Z,8.43
2018-05-24T05:55:14.511Z,12.17
2018-05-24T05:57:42.122Z,7.90
2018-05-24T06:00:09.730Z,9.50
2018-05-24T06:05:12.147Z,7.33
2018-05-24T06:07:39.931Z,7.53
2018-05-24T06:10:07.568Z,9.00
2018-05-24T06:12:36.686Z,7.10
2018-05-24T06:15:04.306Z,6.53
2018-05-24T06:17:31.985Z,6.67
2018-05-24T06:19:59.606Z,6.80
2018-05-24T06:22:27.225Z,8.00
2018-05-24T06:24:54.824Z,7.33
2018-05-24T06:27:23.205Z,7.83
2018-05-24T06:29:50.801Z,6.90
2018-05-24T06:32:18.696Z,7.27
2018-05-24T06:34:46.306Z,7.30
2018-05-24T06:37:16.295Z,7.67
2018-05-24T06:39:44.114Z,8.20
2018-05-24T06:42:11.749Z,8.30
2018-05-24T06:44:40.117Z,8.47
2018-05-24T06:47:07.703Z,8.00
2018-05-24T06:49:35.325Z,8.73
2018-05-24T06:52:02.998Z,10.13
2018-05-24T06:54:30.645Z,9.47
2018-05-24T06:56:58.245Z,8.37
2018-05-24T06:59:25.852Z,8.73
2018-05-24T07:01:53.453Z,8.43
2018-05-24T07:04:21.074Z,8.80
2018-05-24T07:06:48.767Z,9.63
2018-05-24T07:09:17.142Z,8.90
2018-05-24T07:11:44.744Z,10.33
2018-05-24T07:14:12.594Z,9.83
2018-05-24T07:16:40.193Z,9.53
2018-05-24T07:19:07.800Z,10.93
2018-05-24T07:21:35.440Z,10.03
2018-05-24T07:24:03.105Z,13.30
2018-05-24T07:26:45.689Z,11.13
2018-05-24T07:29:14.902Z,10.50
2018-05-24T07:31:42.495Z,11.27
2018-05-24T07:34:10.118Z,9.93
2018-05-24T07:36:42.623Z,10.13
2018-05-24T07:39:10.573Z,13.13
2018-05-24T07:41:38.209Z,10.40
2018-05-24T07:44:08.777Z,12.60
2018-05-24T07:46:36.706Z,11.10
2018-05-24T07:49:08.902Z,11.10
2018-05-24T07:51:37.427Z,12.40
2018-05-24T07:54:06.765Z,12.03
2018-05-24T07:56:36.510Z,11.67
2018-05-24T07:59:04.162Z,10.90
2018-05-24T08:01:31.899Z,11.47
2018-05-24T08:04:00.934Z,10.43
2018-05-24T08:06:29.389Z,11.03
2018-05-24T08:09:00.845Z,10.93
2018-05-24T08:11:30.661Z,10.63
2018-05-24T08:13:59.780Z,11.33
2018-05-24T08:16:30.299Z,12.10
2018-05-24T08:18:58.773Z,10.40
2018-05-24T08:21:30.434Z,10.43
2018-05-24T08:24:02.734Z,12.73
2018-05-24T08:26:31.144Z,10.30
2018-05-24T08:29:01.515Z,10.03
2018-05-24T08:31:31.697Z,12.37
2018-05-24T08:34:01.297Z,10.60
2018-05-24T08:36:32.497Z,9.70
2018-05-24T08:39:02.186Z,11.67
2018-05-24T08:41:30.823Z,10.23
2018-05-24T08:44:01.543Z,10.07
2018-05-24T08:46:30.948Z,10.33
2018-05-24T08:48:59.385Z,9.77
2018-05-24T08:51:40.592Z,11.77
2018-05-24T08:56:54.755Z,10.17
2018-05-24T08:59:27.677Z,9.33
2018-05-24T09:02:03.344Z,9.67
2018-05-24T09:04:32.228Z,8.23
2018-05-24T09:07:02.805Z,7.90
2018-05-24T09:09:32.769Z,8.93
2018-05-24T09:12:00.401Z,9.33
2018-05-24T09:14:29.426Z,8.50
2018-05-24T09:17:00.875Z,8.83
2018-05-24T09:19:33.474Z,7.80
2018-05-24T09:22:01.147Z,8.30
2018-05-24T09:24:28.838Z,7.57
2018-05-24T09:26:57.276Z,7.13
2018-05-24T09:29:26.143Z,5.93
2018-05-24T09:31:55.745Z,5.90
2018-05-24T09:34:30.802Z,5.57
2018-05-24T09:37:01.280Z,5.40
2018-05-24T09:39:30.225Z,5.57
2018-05-24T09:42:01.433Z,6.27
2018-05-24T09:44:29.783Z,6.50
2018-05-24T09:46:58.549Z,6.40
2018-05-24T09:49:28.718Z,7.17
2018-05-24T09:54:46.073Z,7.90
2018-05-24T09:57:13.681Z,9.13
2018-05-24T09:59:42.112Z,7.20
2018-05-24T10:02:09.739Z,8.23
2018-05-24T10:04:39.188Z,8.23
2018-05-24T10:07:07.327Z,7.83
2018-05-24T10:09:35.273Z,9.03
2018-05-24T10:12:03.601Z,8.57
2018-05-24T10:14:32.137Z,9.83
2018-05-24T10:17:02.056Z,9.20
2018-05-24T10:19:35.270Z,9.10
2018-05-24T10:22:02.961Z,9.20
2018-05-24T10:24:30.867Z,9.00
2018-05-24T10:26:59.874Z,8.73
2018-05-24T10:29:30.252Z,9.27
2018-05-24T10:31:57.929Z,10.17
2018-05-24T10:34:27.353Z,10.50
2018-05-24T10:36:56.741Z,10.30
2018-05-24T10:39:29.311Z,11.17
2018-05-24T10:41:58.675Z,11.57
2018-05-24T10:44:31.100Z,10.63
2018-05-24T10:46:58.826Z,10.90
2018-05-24T10:49:26.567Z,10.07
2018-05-24T10:51:58.815Z,11.83
2018-05-24T10:54:28.974Z,12.03
2018-05-24T10:56:59.935Z,15.17
2018-05-24T10:59:29.350Z,16.80
2018-05-24T11:02:02.965Z,16.10
2018-05-24T11:04:30.578Z,16.63
2018-05-24T11:06:58.956Z,16.50
2018-05-24T11:09:30.340Z,17.30
2018-05-24T11:12:05.911Z,17.73
2018-05-24T11:14:38.386Z,18.53
2018-05-24T11:17:07.100Z,18.70
2018-05-24T11:19:36.746Z,19.07
2018-05-24T11:22:05.156Z,18.13
2018-05-24T11:24:33.617Z,17.63
2018-05-24T11:27:02.389Z,19.37
2018-05-24T11:29:30.663Z,19.07
2018-05-24T11:32:00.101Z,18.33
2018-05-24T11:34:28.520Z,18.10
2018-05-24T11:37:00.461Z,18.33
2018-05-24T11:39:29.535Z,18.47
2018-05-24T11:41:57.843Z,17.83
2018-05-24T11:44:29.613Z,17.27
2018-05-24T11:47:02.194Z,18.87
2018-05-24T11:49:29.856Z,19.13
2018-05-24T11:51:57.940Z,19.77
2018-05-24T11:54:27.290Z,18.27
2018-05-24T11:56:57.674Z,19.47
2018-05-24T11:59:26.728Z,18.70
2018-05-24T12:02:35.807Z,19.27
2018-05-24T12:05:04.644Z,17.63
2018-05-24T12:07:33.409Z,19.00
2018-05-24T12:10:01.821Z,18.90
2018-05-24T12:12:29.483Z,17.63
2018-05-24T12:15:07.008Z,18.23
2018-05-24T12:17:38.740Z,18.27
2018-05-24T12:20:06.367Z,18.30
2018-05-24T12:22:34.979Z,22.87
2018-05-24T12:25:02.727Z,18.17
2018-05-24T12:27:32.005Z,18.83
2018-05-24T12:30:00.416Z,20.73
2018-05-24T12:32:28.176Z,19.60
2018-05-24T12:34:56.649Z,21.47
2018-05-24T12:37:28.884Z,20.70
2018-05-24T12:40:03.096Z,19.67
2018-05-24T12:42:31.098Z,19.73
2018-05-24T12:45:00.411Z,19.40
2018-05-24T12:47:34.734Z,19.33
2018-05-24T12:50:07.268Z,18.67
2018-05-24T12:52:36.018Z,19.47
2018-05-24T12:55:04.163Z,18.73
2018-05-24T12:57:33.182Z,20.27
2018-05-24T13:00:03.367Z,20.33
2018-05-24T13:02:31.762Z,20.00
2018-05-24T13:05:03.882Z,20.20
2018-05-24T13:07:31.563Z,21.10
2018-05-24T13:10:00.944Z,21.80
2018-05-24T13:12:28.851Z,21.33
2018-05-24T13:14:58.730Z,21.97
2018-05-24T13:17:28.623Z,21.83
2018-05-24T13:19:56.540Z,21.17
2018-05-24T13:22:26.913Z,23.60
2018-05-24T13:24:58.867Z,23.37
2018-05-24T13:27:28.781Z,23.43
2018-05-24T13:29:58.494Z,23.50
2018-05-24T13:32:28.911Z,24.43
2018-05-24T13:34:58.382Z,24.37
2018-05-24T13:37:28.158Z,22.60
2018-05-24T13:39:58.987Z,23.57
2018-05-24T13:42:35.815Z,24.97
2018-05-24T13:45:03.502Z,24.47
2018-05-24T13:47:31.673Z,21.97
2018-05-24T13:50:00.379Z,24.43
2018-05-24T13:52:35.703Z,22.00
2018-05-24T13:55:04.809Z,22.40
2018-05-24T13:57:44.962Z,22.60
2018-05-24T14:00:12.729Z,22.20
2018-05-24T14:02:42.216Z,22.50
2018-05-24T14:05:10.336Z,20.17
2018-05-24T14:07:38.390Z,20.70
2018-05-24T14:10:09.099Z,19.97
2018-05-24T14:12:36.711Z,21.30
2018-05-24T14:15:04.293Z,21.37
2018-05-24T14:17:32.875Z,21.20
2018-05-24T14:20:02.359Z,20.53
2018-05-24T14:22:31.142Z,21.87
2018-05-24T14:25:02.736Z,21.40
2018-05-24T14:27:32.621Z,22.83
2018-05-24T14:30:02.121Z,20.00
2018-05-24T14:32:31.269Z,20.00
2018-05-24T14:35:01.136Z,19.60
2018-05-24T14:37:30.304Z,19.27
2018-05-24T14:39:58.294Z,21.40
2018-05-24T14:42:27.135Z,21.17
2018-05-24T14:44:56.745Z,22.67
2018-05-24T14:47:26.447Z,19.90
2018-05-24T14:50:01.484Z,22.33
2018-05-24T14:52:34.035Z,19.53
2018-05-24T14:55:02.010Z,20.50
2018-05-24T14:57:30.275Z,22.93
2018-05-24T15:00:02.859Z,22.67
2018-05-24T15:02:31.465Z,23.13
2018-05-24T15:05:00.467Z,22.13
2018-05-24T15:07:28.311Z,19.43
2018-05-24T15:10:00.617Z,21.23
2018-05-24T15:12:29.377Z,26.00
2018-05-24T15:14:58.417Z,23.37
2018-05-24T15:17:31.519Z,24.43
2018-05-24T15:20:04.076Z,23.97
2018-05-24T15:22:32.501Z,23.30
2018-05-24T15:25:01.215Z,26.13
2018-05-24T15:27:29.582Z,24.60
2018-05-24T15:29:59.012Z,24.60
2018-05-24T15:32:30.443Z,23.97
2018-05-24T15:35:01.223Z,25.97
2018-05-24T15:37:31.986Z,23.67
2018-05-24T15:40:01.111Z,25.43
2018-05-24T15:42:33.783Z,24.20
2018-05-24T15:45:01.558Z,24.80
2018-05-24T15:47:30.202Z,27.77
2018-05-24T15:49:59.232Z,26.30
2018-05-24T15:52:27.612Z,27.73
2018-05-24T15:55:07.503Z,26.67
2018-05-24T15:57:35.536Z,26.23
2018-05-24T16:00:03.907Z,26.93
2018-05-24T16:02:33.009Z,27.30
2018-05-24T16:05:03.263Z,27.27
2018-05-24T16:07:30.877Z,27.10
2018-05-24T16:09:58.473Z,27.47
2018-05-24T16:12:26.836Z,27.37
2018-05-24T16:14:54.426Z,26.73
2018-05-24T16:17:22.032Z,27.40
2018-05-24T16:19:49.627Z,24.10
2018-05-24T16:22:17.220Z,27.37
2018-05-24T16:24:44.811Z,25.37
2018-05-24T16:27:12.413Z,25.93
2018-05-24T16:29:40.782Z,26.03
2018-05-24T16:32:08.493Z,27.63
2018-05-24T16:34:37.358Z,28.00
2018-05-24T16:37:05.750Z,26.97
2018-05-24T16:39:33.387Z,28.13
2018-05-24T16:42:01.007Z,28.27
2018-05-24T16:44:28.598Z,27.07
2018-05-24T16:46:56.274Z,29.20
2018-05-24T16:49:23.893Z,29.20
2018-05-24T16:51:51.563Z,29.17
2018-05-24T16:54:19.395Z,28.10
2018-05-24T16:56:47.015Z,28.30
2018-05-24T16:59:14.804Z,28.57
2018-05-24T17:01:42.448Z,31.30
2018-05-24T17:04:11.068Z,28.77
2018-05-24T17:06:39.528Z,30.20
2018-05-24T17:09:07.893Z,29.20
2018-05-24T17:11:36.286Z,29.97
2018-05-24T17:17:03.552Z,27.90
2018-05-24T17:19:31.184Z,28.80
2018-05-24T17:21:58.787Z,27.97
2018-05-24T17:24:26.399Z,29.33
2018-05-24T17:26:54.022Z,29.57
2018-05-24T17:29:21.632Z,30.60
2018-05-24T17:31:50.018Z,29.87
2018-05-24T17:34:38.900Z,29.60
2018-05-24T17:37:07.081Z,29.93
2018-05-24T17:39:34.700Z,31.07
2018-05-24T17:42:02.662Z,28.10
2018-05-24T17:44:32.073Z,29.53
2018-05-24T17:47:02.858Z,28.97
2018-05-24T17:49:34.347Z,25.70
2018-05-24T17:52:05.830Z,24.83
2018-05-24T17:54:35.306Z,27.30
2018-05-24T17:57:02.935Z,26.43
2018-05-24T17:59:30.525Z,26.20
2018-05-24T18:01:58.227Z,26.73
2018-05-24T18:04:30.744Z,24.47
2018-05-24T18:07:03.210Z,23.47
2018-05-24T18:09:30.832Z,22.67
2018-05-24T18:12:02.176Z,21.67
2018-05-24T18:14:29.884Z,22.57
2018-05-24T18:16:59.403Z,23.60
2018-05-24T18:19:30.761Z,24.40
2018-05-24T18:21:58.430Z,23.27
2018-05-24T18:24:26.065Z,23.40
2018-05-24T18:26:55.718Z,24.20
2018-05-24T18:29:25.830Z,23.10
2018-05-24T18:32:00.351Z,24.47
2018-05-24T18:34:29.219Z,24.40
2018-05-24T18:36:59.649Z,24.00
2018-05-24T18:39:28.126Z,25.13
2018-05-24T18:41:57.387Z,25.83
2018-05-24T18:44:27.173Z,27.13
2018-05-24T18:46:58.162Z,26.73
2018-05-24T18:49:27.947Z,29.53
2018-05-24T18:51:56.480Z,28.07
2018-05-24T18:54:27.735Z,25.83
2018-05-24T18:56:56.399Z,24.00
2018-05-24T18:59:24.917Z,24.23
2018-05-24T19:01:54.521Z,22.17
2018-05-24T19:04:23.055Z,20.40
2018-05-24T19:06:51.916Z,20.73
2018-05-24T19:09:19.595Z,21.13
2018-05-24T19:11:47.248Z,20.80
2018-05-24T19:14:14.885Z,19.87
2018-05-24T19:16:44.230Z,20.07
2018-05-24T19:19:11.851Z,19.73
2018-05-24T19:21:41.058Z,18.07
2018-05-24T19:24:08.665Z,17.93
2018-05-24T19:26:39.069Z,18.87
2018-05-24T19:29:07.209Z,18.80
2018-05-24T19:31:34.847Z,18.87
2018-05-24T19:34:02.540Z,18.23
2018-05-24T19:36:34.254Z,17.77
2018-05-24T19:39:04.082Z,17.87
2018-05-24T19:41:31.745Z,19.33
2018-05-24T19:44:00.216Z,19.37
2018-05-24T19:46:31.879Z,17.40
2018-05-24T19:49:02.303Z,17.63
2018-05-24T19:51:30.897Z,20.17
2018-05-24T19:53:59.998Z,18.10
2018-05-24T19:56:34.838Z,19.10
2018-05-24T19:59:02.553Z,21.37
2018-05-24T20:01:30.375Z,21.23
2018-05-24T20:04:00.587Z,19.67
2018-05-24T20:06:29.936Z,19.83
2018-05-24T20:09:03.963Z,18.80
2018-05-24T20:11:34.442Z,20.10
2018-05-24T20:14:04.089Z,19.40
2018-05-24T20:16:36.570Z,19.80
2018-05-24T20:19:05.178Z,19.10
2018-05-24T20:21:37.235Z,19.73
2018-05-24T20:24:07.099Z,19.70
2018-05-24T20:26:35.375Z,19.07
2018-05-24T20:29:03.899Z,19.67
2018-05-24T20:31:32.905Z,19.53
2018-05-24T20:34:02.251Z,20.23
2018-05-24T20:36:31.266Z,19.53
2018-05-24T20:39:06.594Z,20.77
2018-05-24T20:41:34.288Z,21.40
2018-05-24T20:44:04.034Z,107.57
2018-05-24T20:46:32.446Z,26.67
2018-05-24T20:49:00.841Z,30.30
2018-05-24T20:51:29.188Z,22.77
2018-05-24T20:53:56.903Z,24.17
2018-05-24T20:56:24.513Z,22.27
2018-05-24T20:58:52.286Z,21.30
2018-05-24T21:01:19.968Z,21.33
2018-05-24T21:03:47.589Z,21.93
2018-05-24T21:06:15.184Z,21.03
2018-05-24T21:08:43.587Z,23.10
2018-05-24T21:11:11.184Z,22.50
2018-05-24T21:14:35.716Z,23.60
2018-05-24T21:17:03.534Z,22.13
2018-05-24T21:19:31.983Z,22.37
2018-05-24T21:22:00.416Z,23.73
2018-05-24T21:27:32.357Z,22.83
2018-05-24T21:30:16.682Z,24.80
2018-05-24T21:32:47.118Z,24.93
2018-05-24T21:35:19.248Z,24.73
2018-05-24T21:37:47.778Z,24.00
2018-05-24T21:40:16.197Z,25.10
2018-05-24T21:42:44.481Z,26.87
2018-05-24T21:45:13.469Z,28.00
2018-05-24T21:47:41.381Z,29.77
2018-05-24T21:50:09.150Z,29.37
2018-05-24T21:52:37.986Z,29.00
2018-05-24T21:55:05.591Z,28.63
2018-05-24T21:57:34.065Z,28.67
2018-05-24T22:00:05.258Z,30.57
2018-05-24T22:02:33.609Z,28.33
2018-05-24T22:05:01.322Z,29.10
2018-05-24T22:07:30.738Z,30.10
2018-05-24T22:10:00.481Z,28.83
2018-05-24T22:12:29.993Z,28.57
2018-05-24T22:14:58.830Z,28.73
2018-05-24T22:17:29.106Z,30.87
2018-05-24T22:19:56.709Z,27.87
2018-05-24T22:22:26.461Z,27.77
2018-05-24T22:24:56.534Z,27.60
2018-05-24T22:27:27.398Z,26.00
2018-05-24T22:29:59.963Z,28.37
2018-05-24T22:32:28.673Z,30.67
2018-05-24T22:34:57.076Z,28.37
2018-05-24T22:37:27.553Z,28.63
2018-05-24T22:40:00.348Z,30.27
2018-05-24T22:42:30.995Z,27.50
2018-05-24T22:45:02.835Z,29.37
2018-05-24T23:29:39.315Z,30.50
2018-05-24T23:32:08.682Z,31.57
2018-05-24T23:34:37.258Z,28.70
2018-05-24T23:37:06.041Z,27.83
2018-05-24T23:39:34.250Z,29.30
2018-05-24T23:42:03.436Z,29.07
2018-05-24T23:44:31.630Z,29.30
2018-05-24T23:47:02.293Z,28.17
2018-05-24T23:49:34.108Z,30.17
2018-05-24T23:52:05.752Z,30.33
2018-05-24T23:54:37.898Z,28.77
2018-05-24T23:57:06.879Z,29.23
2018-05-24T23:59:36.159Z,30.63
